sensor_id;sensor_type;location;lat;lon;timestamp;P1;durP1;ratioP1;P2;durP2;ratioP2
48574;SDS011;34352;51.084;3.712;2022-09-09T00:10:21;5.93;;;2.50;;
48574;SDS011;34352;51.084;3.712;2022-09-09T00:12:56;6.35;;;2.70;;
48574;SDS011;34352;51.084;3.712;2022-09-09T00:15:40;6.93;;;2.35;;
48574;SDS011;34352;51.084;3.712;2022-09-09T00:21:08;8.00;;;2.90;;
48574;SDS011;34352;51.084;3.712;2022-09-09T00:23:39;7.13;;;2.50;;
48574;SDS011;34352;51.084;3.712;2022-09-09T00:28:55;5.38;;;2.13;;
48574;SDS011;34352;51.084;3.712;2022-09-09T00:39:21;8.23;;;2.47;;
48574;SDS011;34352;51.084;3.712;2022-09-09T00:47:30;4.53;;;2.20;;
48574;SDS011;34352;51.084;3.712;2022-09-09T00:56:24;2.85;;;1.73;;
48574;SDS011;34352;51.084;3.712;2022-09-09T00:59:01;5.82;;;2.58;;
48574;SDS011;34352;51.084;3.712;2022-09-09T01:01:35;4.78;;;2.50;;
48574;SDS011;34352;51.084;3.712;2022-09-09T01:04:02;4.47;;;2.10;;
48574;SDS011;34352;51.084;3.712;2022-09-09T01:06:36;6.55;;;2.58;;
48574;SDS011;34352;51.084;3.712;2022-09-09T01:28:22;6.72;;;2.05;;
48574;SDS011;34352;51.084;3.712;2022-09-09T01:30:53;9.13;;;2.45;;
48574;SDS011;34352;51.084;3.712;2022-09-09T01:33:21;5.07;;;2.30;;
48574;SDS011;34352;51.084;3.712;2022-09-09T01:36:00;4.35;;;1.88;;
48574;SDS011;34352;51.084;3.712;2022-09-09T01:41:00;9.98;;;2.85;;
48574;SDS011;34352;51.084;3.712;2022-09-09T01:43:26;6.25;;;2.13;;
48574;SDS011;34352;51.084;3.712;2022-09-09T01:45:53;5.35;;;1.80;;
48574;SDS011;34352;51.084;3.712;2022-09-09T01:48:22;7.97;;;2.10;;
48574;SDS011;34352;51.084;3.712;2022-09-09T01:50:51;11.07;;;2.25;;
48574;SDS011;34352;51.084;3.712;2022-09-09T01:53:18;4.65;;;2.17;;
48574;SDS011;34352;51.084;3.712;2022-09-09T01:55:53;7.15;;;1.80;;
48574;SDS011;34352;51.084;3.712;2022-09-09T02:01:57;7.95;;;2.08;;
48574;SDS011;34352;51.084;3.712;2022-09-09T02:04:36;5.43;;;2.08;;
48574;SDS011;34352;51.084;3.712;2022-09-09T02:07:23;4.13;;;2.33;;
48574;SDS011;34352;51.084;3.712;2022-09-09T02:10:24;7.50;;;2.33;;
48574;SDS011;34352;51.084;3.712;2022-09-09T02:13:18;3.10;;;1.80;;
48574;SDS011;34352;51.084;3.712;2022-09-09T02:15:52;10.15;;;2.70;;
48574;SDS011;34352;51.084;3.712;2022-09-09T02:18:42;5.63;;;2.30;;
48574;SDS011;34352;51.084;3.712;2022-09-09T02:21:26;4.55;;;1.95;;
48574;SDS011;34352;51.084;3.712;2022-09-09T02:23:56;6.22;;;2.00;;
48574;SDS011;34352;51.084;3.712;2022-09-09T02:26:25;7.00;;;2.30;;
48574;SDS011;34352;51.084;3.712;2022-09-09T02:28:54;4.68;;;2.25;;
48574;SDS011;34352;51.084;3.712;2022-09-09T02:31:24;7.68;;;2.20;;
48574;SDS011;34352;51.084;3.712;2022-09-09T02:33:59;4.38;;;2.38;;
48574;SDS011;34352;51.084;3.712;2022-09-09T02:36:28;7.47;;;2.40;;
48574;SDS011;34352;51.084;3.712;2022-09-09T02:38:58;5.80;;;2.47;;
48574;SDS011;34352;51.084;3.712;2022-09-09T02:41:35;6.90;;;2.33;;
48574;SDS011;34352;51.084;3.712;2022-09-09T02:44:05;7.45;;;2.35;;
48574;SDS011;34352;51.084;3.712;2022-09-09T02:52:34;10.18;;;2.58;;
48574;SDS011;34352;51.084;3.712;2022-09-09T02:55:17;11.27;;;2.75;;
48574;SDS011;34352;51.084;3.712;2022-09-09T02:57:47;8.80;;;2.40;;
48574;SDS011;34352;51.084;3.712;2022-09-09T03:00:13;6.35;;;2.33;;
48574;SDS011;34352;51.084;3.712;2022-09-09T03:02:40;9.95;;;2.60;;
48574;SDS011;34352;51.084;3.712;2022-09-09T03:05:07;9.63;;;2.90;;
48574;SDS011;34352;51.084;3.712;2022-09-09T03:07:33;9.48;;;2.45;;
48574;SDS011;34352;51.084;3.712;2022-09-09T03:09:58;6.60;;;2.47;;
48574;SDS011;34352;51.084;3.712;2022-09-09T03:12:26;13.38;;;2.92;;
48574;SDS011;34352;51.084;3.712;2022-09-09T03:14:52;6.45;;;2.55;;
48574;SDS011;34352;51.084;3.712;2022-09-09T03:17:17;11.48;;;2.90;;
48574;SDS011;34352;51.084;3.712;2022-09-09T03:19:43;10.75;;;2.83;;
48574;SDS011;34352;51.084;3.712;2022-09-09T03:22:09;10.63;;;2.60;;
48574;SDS011;34352;51.084;3.712;2022-09-09T03:24:36;9.25;;;2.55;;
48574;SDS011;34352;51.084;3.712;2022-09-09T03:27:03;12.45;;;3.08;;
48574;SDS011;34352;51.084;3.712;2022-09-09T03:29:28;13.35;;;2.88;;
48574;SDS011;34352;51.084;3.712;2022-09-09T03:31:54;9.35;;;2.95;;
48574;SDS011;34352;51.084;3.712;2022-09-09T03:34:20;14.48;;;2.92;;
48574;SDS011;34352;51.084;3.712;2022-09-09T03:36:46;10.65;;;3.03;;
48574;SDS011;34352;51.084;3.712;2022-09-09T03:39:15;13.95;;;3.17;;
48574;SDS011;34352;51.084;3.712;2022-09-09T03:41:41;17.00;;;3.40;;
48574;SDS011;34352;51.084;3.712;2022-09-09T03:44:11;10.68;;;3.00;;
48574;SDS011;34352;51.084;3.712;2022-09-09T03:46:36;12.82;;;3.00;;
48574;SDS011;34352;51.084;3.712;2022-09-09T03:49:04;11.32;;;2.80;;
48574;SDS011;34352;51.084;3.712;2022-09-09T03:51:31;9.32;;;2.50;;
48574;SDS011;34352;51.084;3.712;2022-09-09T03:54:00;18.98;;;3.50;;
48574;SDS011;34352;51.084;3.712;2022-09-09T03:56:26;15.65;;;3.78;;
48574;SDS011;34352;51.084;3.712;2022-09-09T03:58:52;9.88;;;2.83;;
48574;SDS011;34352;51.084;3.712;2022-09-09T04:01:18;12.90;;;2.95;;
48574;SDS011;34352;51.084;3.712;2022-09-09T04:03:44;8.88;;;3.03;;
48574;SDS011;34352;51.084;3.712;2022-09-09T04:06:10;9.98;;;2.70;;
48574;SDS011;34352;51.084;3.712;2022-09-09T04:08:38;10.30;;;3.00;;
48574;SDS011;34352;51.084;3.712;2022-09-09T04:11:05;12.43;;;2.85;;
48574;SDS011;34352;51.084;3.712;2022-09-09T04:13:33;13.27;;;2.90;;
48574;SDS011;34352;51.084;3.712;2022-09-09T04:16:02;12.80;;;3.28;;
48574;SDS011;34352;51.084;3.712;2022-09-09T04:18:29;15.85;;;6.07;;
48574;SDS011;34352;51.084;3.712;2022-09-09T04:20:55;10.68;;;3.35;;
48574;SDS011;34352;51.084;3.712;2022-09-09T04:23:25;16.02;;;3.10;;
48574;SDS011;34352;51.084;3.712;2022-09-09T04:28:23;12.57;;;3.28;;
48574;SDS011;34352;51.084;3.712;2022-09-09T04:30:52;12.20;;;3.35;;
48574;SDS011;34352;51.084;3.712;2022-09-09T04:33:20;8.80;;;2.83;;
48574;SDS011;34352;51.084;3.712;2022-09-09T04:35:46;11.23;;;3.15;;
48574;SDS011;34352;51.084;3.712;2022-09-09T04:38:14;10.30;;;3.00;;
48574;SDS011;34352;51.084;3.712;2022-09-09T04:40:50;13.18;;;3.17;;
48574;SDS011;34352;51.084;3.712;2022-09-09T04:43:19;10.95;;;2.47;;
48574;SDS011;34352;51.084;3.712;2022-09-09T04:45:49;11.32;;;3.22;;
48574;SDS011;34352;51.084;3.712;2022-09-09T04:48:17;13.25;;;3.28;;
48574;SDS011;34352;51.084;3.712;2022-09-09T04:50:43;14.43;;;3.58;;
48574;SDS011;34352;51.084;3.712;2022-09-09T04:53:09;12.25;;;3.30;;
48574;SDS011;34352;51.084;3.712;2022-09-09T04:55:35;13.55;;;3.13;;
48574;SDS011;34352;51.084;3.712;2022-09-09T04:58:04;15.45;;;3.42;;
48574;SDS011;34352;51.084;3.712;2022-09-09T05:00:34;11.15;;;3.42;;
48574;SDS011;34352;51.084;3.712;2022-09-09T05:03:04;12.43;;;3.40;;
48574;SDS011;34352;51.084;3.712;2022-09-09T05:05:31;11.02;;;3.47;;
48574;SDS011;34352;51.084;3.712;2022-09-09T05:08:03;18.27;;;3.83;;
48574;SDS011;34352;51.084;3.712;2022-09-09T05:10:31;11.98;;;3.47;;
48574;SDS011;34352;51.084;3.712;2022-09-09T05:12:57;11.70;;;3.65;;
48574;SDS011;34352;51.084;3.712;2022-09-09T05:15:22;14.02;;;4.05;;
48574;SDS011;34352;51.084;3.712;2022-09-09T05:17:56;12.93;;;3.28;;
48574;SDS011;34352;51.084;3.712;2022-09-09T05:20:25;13.55;;;4.05;;
48574;SDS011;34352;51.084;3.712;2022-09-09T05:22:52;14.25;;;3.90;;
48574;SDS011;34352;51.084;3.712;2022-09-09T05:25:20;13.35;;;3.72;;
48574;SDS011;34352;51.084;3.712;2022-09-09T05:27:49;18.85;;;4.38;;
48574;SDS011;34352;51.084;3.712;2022-09-09T05:30:14;10.85;;;4.15;;
48574;SDS011;34352;51.084;3.712;2022-09-09T05:32:43;17.77;;;4.68;;
48574;SDS011;34352;51.084;3.712;2022-09-09T05:35:09;14.10;;;4.45;;
48574;SDS011;34352;51.084;3.712;2022-09-09T05:37:35;15.45;;;4.68;;
48574;SDS011;34352;51.084;3.712;2022-09-09T05:40:04;11.65;;;4.10;;
48574;SDS011;34352;51.084;3.712;2022-09-09T05:42:30;13.50;;;4.72;;
48574;SDS011;34352;51.084;3.712;2022-09-09T05:44:58;18.75;;;4.85;;
48574;SDS011;34352;51.084;3.712;2022-09-09T05:47:26;18.05;;;5.03;;
48574;SDS011;34352;51.084;3.712;2022-09-09T05:49:53;20.02;;;4.90;;
48574;SDS011;34352;51.084;3.712;2022-09-09T05:52:21;14.35;;;4.47;;
48574;SDS011;34352;51.084;3.712;2022-09-09T05:57:42;9.60;;;3.72;;
48574;SDS011;34352;51.084;3.712;2022-09-09T06:00:15;11.15;;;4.43;;
48574;SDS011;34352;51.084;3.712;2022-09-09T06:02:41;22.77;;;4.20;;
48574;SDS011;34352;51.084;3.712;2022-09-09T06:05:07;10.90;;;4.43;;
48574;SDS011;34352;51.084;3.712;2022-09-09T06:07:34;14.68;;;4.75;;
48574;SDS011;34352;51.084;3.712;2022-09-09T06:10:01;14.55;;;4.70;;
48574;SDS011;34352;51.084;3.712;2022-09-09T06:12:28;14.32;;;4.68;;
48574;SDS011;34352;51.084;3.712;2022-09-09T06:14:56;10.02;;;4.38;;
48574;SDS011;34352;51.084;3.712;2022-09-09T06:17:21;14.85;;;4.45;;
48574;SDS011;34352;51.084;3.712;2022-09-09T06:19:47;18.20;;;4.93;;
48574;SDS011;34352;51.084;3.712;2022-09-09T06:22:14;18.77;;;5.03;;
48574;SDS011;34352;51.084;3.712;2022-09-09T06:24:39;12.98;;;5.13;;
48574;SDS011;34352;51.084;3.712;2022-09-09T06:27:12;21.92;;;5.07;;
48574;SDS011;34352;51.084;3.712;2022-09-09T06:29:38;16.13;;;5.03;;
48574;SDS011;34352;51.084;3.712;2022-09-09T06:32:04;20.02;;;4.93;;
48574;SDS011;34352;51.084;3.712;2022-09-09T06:37:02;19.63;;;5.35;;
48574;SDS011;34352;51.084;3.712;2022-09-09T06:39:28;13.55;;;4.93;;
48574;SDS011;34352;51.084;3.712;2022-09-09T06:41:56;15.10;;;4.70;;
48574;SDS011;34352;51.084;3.712;2022-09-09T06:44:24;11.23;;;4.45;;
48574;SDS011;34352;51.084;3.712;2022-09-09T06:46:55;13.90;;;4.80;;
48574;SDS011;34352;51.084;3.712;2022-09-09T06:49:21;15.32;;;5.45;;
48574;SDS011;34352;51.084;3.712;2022-09-09T06:51:48;15.65;;;4.85;;
48574;SDS011;34352;51.084;3.712;2022-09-09T06:54:20;14.85;;;4.25;;
48574;SDS011;34352;51.084;3.712;2022-09-09T06:56:50;11.82;;;4.20;;
48574;SDS011;34352;51.084;3.712;2022-09-09T06:59:17;18.30;;;4.38;;
48574;SDS011;34352;51.084;3.712;2022-09-09T07:01:42;11.25;;;3.65;;
48574;SDS011;34352;51.084;3.712;2022-09-09T07:04:10;11.60;;;3.90;;
48574;SDS011;34352;51.084;3.712;2022-09-09T07:06:37;16.45;;;3.70;;
48574;SDS011;34352;51.084;3.712;2022-09-09T07:09:08;14.50;;;3.50;;
48574;SDS011;34352;51.084;3.712;2022-09-09T07:11:40;7.57;;;2.70;;
48574;SDS011;34352;51.084;3.712;2022-09-09T07:14:12;10.68;;;3.08;;
48574;SDS011;34352;51.084;3.712;2022-09-09T07:16:40;10.35;;;3.10;;
48574;SDS011;34352;51.084;3.712;2022-09-09T07:19:10;10.45;;;2.90;;
48574;SDS011;34352;51.084;3.712;2022-09-09T07:21:37;13.15;;;3.05;;
48574;SDS011;34352;51.084;3.712;2022-09-09T07:24:05;12.60;;;2.95;;
48574;SDS011;34352;51.084;3.712;2022-09-09T07:26:32;12.65;;;3.50;;
48574;SDS011;34352;51.084;3.712;2022-09-09T07:28:59;10.45;;;3.10;;
48574;SDS011;34352;51.084;3.712;2022-09-09T07:31:27;13.20;;;3.42;;
48574;SDS011;34352;51.084;3.712;2022-09-09T07:33:57;11.82;;;3.53;;
48574;SDS011;34352;51.084;3.712;2022-09-09T07:36:28;10.68;;;3.10;;
48574;SDS011;34352;51.084;3.712;2022-09-09T07:38:57;10.35;;;2.85;;
48574;SDS011;34352;51.084;3.712;2022-09-09T07:43:59;14.52;;;3.90;;
48574;SDS011;34352;51.084;3.712;2022-09-09T07:46:31;11.38;;;3.10;;
48574;SDS011;34352;51.084;3.712;2022-09-09T07:48:59;8.63;;;3.03;;
48574;SDS011;34352;51.084;3.712;2022-09-09T07:51:35;9.85;;;3.08;;
48574;SDS011;34352;51.084;3.712;2022-09-09T07:56:48;10.65;;;3.47;;
48574;SDS011;34352;51.084;3.712;2022-09-09T07:59:15;11.93;;;3.10;;
48574;SDS011;34352;51.084;3.712;2022-09-09T08:01:44;9.27;;;2.97;;
48574;SDS011;34352;51.084;3.712;2022-09-09T08:04:14;8.77;;;2.70;;
48574;SDS011;34352;51.084;3.712;2022-09-09T08:06:44;12.80;;;3.30;;
48574;SDS011;34352;51.084;3.712;2022-09-09T08:09:12;11.50;;;3.35;;
48574;SDS011;34352;51.084;3.712;2022-09-09T08:11:38;13.98;;;2.85;;
48574;SDS011;34352;51.084;3.712;2022-09-09T08:14:07;9.65;;;3.10;;
48574;SDS011;34352;51.084;3.712;2022-09-09T08:16:34;10.60;;;3.20;;
48574;SDS011;34352;51.084;3.712;2022-09-09T08:19:02;8.82;;;3.13;;
48574;SDS011;34352;51.084;3.712;2022-09-09T08:21:30;10.00;;;2.63;;
48574;SDS011;34352;51.084;3.712;2022-09-09T08:23:58;9.30;;;3.08;;
48574;SDS011;34352;51.084;3.712;2022-09-09T08:26:27;12.00;;;3.53;;
48574;SDS011;34352;51.084;3.712;2022-09-09T08:28:55;7.82;;;2.97;;
48574;SDS011;34352;51.084;3.712;2022-09-09T08:33:56;14.80;;;2.60;;
48574;SDS011;34352;51.084;3.712;2022-09-09T08:36:26;6.80;;;2.50;;
48574;SDS011;34352;51.084;3.712;2022-09-09T08:38:56;7.50;;;2.65;;
48574;SDS011;34352;51.084;3.712;2022-09-09T08:43:49;9.98;;;2.95;;
48574;SDS011;34352;51.084;3.712;2022-09-09T08:46:29;8.65;;;2.80;;
48574;SDS011;34352;51.084;3.712;2022-09-09T08:52:08;13.52;;;2.83;;
48574;SDS011;34352;51.084;3.712;2022-09-09T08:54:40;6.32;;;2.45;;
48574;SDS011;34352;51.084;3.712;2022-09-09T08:57:09;6.15;;;2.30;;
48574;SDS011;34352;51.084;3.712;2022-09-09T08:59:40;6.53;;;2.50;;
48574;SDS011;34352;51.084;3.712;2022-09-09T09:02:21;8.68;;;2.70;;
48574;SDS011;34352;51.084;3.712;2022-09-09T09:05:07;12.45;;;3.60;;
48574;SDS011;34352;51.084;3.712;2022-09-09T09:07:47;8.00;;;3.13;;
48574;SDS011;34352;51.084;3.712;2022-09-09T09:10:27;8.27;;;2.70;;
48574;SDS011;34352;51.084;3.712;2022-09-09T09:13:15;5.87;;;3.17;;
48574;SDS011;34352;51.084;3.712;2022-09-09T09:15:53;9.10;;;3.28;;
48574;SDS011;34352;51.084;3.712;2022-09-09T09:18:23;9.88;;;3.05;;
48574;SDS011;34352;51.084;3.712;2022-09-09T09:20:54;8.95;;;2.70;;
48574;SDS011;34352;51.084;3.712;2022-09-09T09:23:45;8.43;;;3.20;;
48574;SDS011;34352;51.084;3.712;2022-09-09T09:26:19;5.47;;;2.55;;
48574;SDS011;34352;51.084;3.712;2022-09-09T09:28:47;7.05;;;2.78;;
48574;SDS011;34352;51.084;3.712;2022-09-09T09:31:12;8.50;;;2.70;;
48574;SDS011;34352;51.084;3.712;2022-09-09T09:33:49;7.35;;;2.63;;
48574;SDS011;34352;51.084;3.712;2022-09-09T09:36:18;8.68;;;2.75;;
48574;SDS011;34352;51.084;3.712;2022-09-09T09:38:57;9.07;;;2.55;;
48574;SDS011;34352;51.084;3.712;2022-09-09T09:41:43;7.00;;;2.63;;
48574;SDS011;34352;51.084;3.712;2022-09-09T09:46:45;7.13;;;2.42;;
48574;SDS011;34352;51.084;3.712;2022-09-09T09:49:10;8.00;;;2.40;;
48574;SDS011;34352;51.084;3.712;2022-09-09T09:51:38;4.05;;;2.15;;
48574;SDS011;34352;51.084;3.712;2022-09-09T09:56:39;5.55;;;2.42;;
48574;SDS011;34352;51.084;3.712;2022-09-09T09:59:11;4.65;;;2.50;;
48574;SDS011;34352;51.084;3.712;2022-09-09T10:01:49;7.82;;;2.63;;
48574;SDS011;34352;51.084;3.712;2022-09-09T10:06:41;5.20;;;2.20;;
48574;SDS011;34352;51.084;3.712;2022-09-09T10:23:41;8.00;;;2.35;;
48574;SDS011;34352;51.084;3.712;2022-09-09T10:34:45;5.32;;;2.08;;
48574;SDS011;34352;51.084;3.712;2022-09-09T10:37:39;7.32;;;2.83;;
48574;SDS011;34352;51.084;3.712;2022-09-09T10:40:28;6.90;;;2.90;;
48574;SDS011;34352;51.084;3.712;2022-09-09T10:43:04;5.13;;;2.17;;
48574;SDS011;34352;51.084;3.712;2022-09-09T10:56:49;4.78;;;2.03;;
48574;SDS011;34352;51.084;3.712;2022-09-09T10:59:22;7.93;;;2.55;;
48574;SDS011;34352;51.084;3.712;2022-09-09T11:01:57;5.93;;;1.90;;
48574;SDS011;34352;51.084;3.712;2022-09-09T11:07:08;10.02;;;2.13;;
48574;SDS011;34352;51.084;3.712;2022-09-09T11:09:40;2.70;;;1.60;;
48574;SDS011;34352;51.084;3.712;2022-09-09T11:12:12;4.03;;;1.80;;
48574;SDS011;34352;51.084;3.712;2022-09-09T11:14:45;7.18;;;1.55;;
48574;SDS011;34352;51.084;3.712;2022-09-09T11:17:23;4.53;;;2.00;;
48574;SDS011;34352;51.084;3.712;2022-09-09T11:19:58;3.72;;;1.40;;
48574;SDS011;34352;51.084;3.712;2022-09-09T11:25:14;3.40;;;1.95;;
48574;SDS011;34352;51.084;3.712;2022-09-09T11:39:17;4.90;;;1.60;;
48574;SDS011;34352;51.084;3.712;2022-09-09T11:42:21;3.83;;;1.80;;
48574;SDS011;34352;51.084;3.712;2022-09-09T11:47:22;4.50;;;1.60;;
48574;SDS011;34352;51.084;3.712;2022-09-09T11:49:54;4.38;;;1.50;;
48574;SDS011;34352;51.084;3.712;2022-09-09T11:55:20;3.63;;;1.30;;
48574;SDS011;34352;51.084;3.712;2022-09-09T11:58:01;3.83;;;1.20;;
48574;SDS011;34352;51.084;3.712;2022-09-09T12:06:13;2.45;;;1.17;;
48574;SDS011;34352;51.084;3.712;2022-09-09T12:08:45;4.70;;;1.38;;
48574;SDS011;34352;51.084;3.712;2022-09-09T12:11:27;5.10;;;1.67;;
48574;SDS011;34352;51.084;3.712;2022-09-09T12:13:56;2.42;;;1.23;;
48574;SDS011;34352;51.084;3.712;2022-09-09T12:16:31;4.07;;;1.65;;
48574;SDS011;34352;51.084;3.712;2022-09-09T12:19:41;2.33;;;1.40;;
48574;SDS011;34352;51.084;3.712;2022-09-09T12:21:54;3.13;;;1.50;;
48574;SDS011;34352;51.084;3.712;2022-09-09T12:27:47;6.70;;;1.85;;
48574;SDS011;34352;51.084;3.712;2022-09-09T12:30:22;6.07;;;1.92;;
48574;SDS011;34352;51.084;3.712;2022-09-09T12:35:27;3.28;;;1.60;;
48574;SDS011;34352;51.084;3.712;2022-09-09T12:37:56;3.13;;;1.40;;
48574;SDS011;34352;51.084;3.712;2022-09-09T12:40:31;4.28;;;1.80;;
48574;SDS011;34352;51.084;3.712;2022-09-09T12:43:01;7.93;;;1.83;;
48574;SDS011;34352;51.084;3.712;2022-09-09T12:45:41;2.97;;;1.58;;
48574;SDS011;34352;51.084;3.712;2022-09-09T12:48:09;2.78;;;1.48;;
48574;SDS011;34352;51.084;3.712;2022-09-09T12:50:47;3.90;;;1.55;;
48574;SDS011;34352;51.084;3.712;2022-09-09T12:55:52;3.90;;;1.50;;
48574;SDS011;34352;51.084;3.712;2022-09-09T12:58:23;4.70;;;1.70;;
48574;SDS011;34352;51.084;3.712;2022-09-09T13:00:50;4.55;;;1.67;;
48574;SDS011;34352;51.084;3.712;2022-09-09T13:03:18;4.18;;;1.50;;
48574;SDS011;34352;51.084;3.712;2022-09-09T13:05:48;3.13;;;1.73;;
48574;SDS011;34352;51.084;3.712;2022-09-09T13:08:15;3.70;;;1.77;;
48574;SDS011;34352;51.084;3.712;2022-09-09T13:13:22;3.28;;;1.60;;
48574;SDS011;34352;51.084;3.712;2022-09-09T13:15:53;4.78;;;2.15;;
48574;SDS011;34352;51.084;3.712;2022-09-09T13:18:31;5.65;;;2.10;;
48574;SDS011;34352;51.084;3.712;2022-09-09T13:20:59;3.00;;;1.63;;
48574;SDS011;34352;51.084;3.712;2022-09-09T13:23:29;5.50;;;1.85;;
48574;SDS011;34352;51.084;3.712;2022-09-09T13:26:19;3.63;;;1.88;;
48574;SDS011;34352;51.084;3.712;2022-09-09T13:28:50;5.15;;;1.80;;
48574;SDS011;34352;51.084;3.712;2022-09-09T13:31:21;6.75;;;2.15;;
48574;SDS011;34352;51.084;3.712;2022-09-09T13:33:48;3.63;;;1.63;;
48574;SDS011;34352;51.084;3.712;2022-09-09T13:36:14;3.13;;;1.35;;
48574;SDS011;34352;51.084;3.712;2022-09-09T13:38:40;4.20;;;1.60;;
48574;SDS011;34352;51.084;3.712;2022-09-09T13:41:24;2.13;;;1.45;;
48574;SDS011;34352;51.084;3.712;2022-09-09T13:43:55;2.53;;;1.50;;
48574;SDS011;34352;51.084;3.712;2022-09-09T13:49:03;5.50;;;1.80;;
48574;SDS011;34352;51.084;3.712;2022-09-09T13:51:49;2.95;;;1.80;;
48574;SDS011;34352;51.084;3.712;2022-09-09T13:56:44;4.18;;;1.83;;
48574;SDS011;34352;51.084;3.712;2022-09-09T13:59:11;4.60;;;1.60;;
48574;SDS011;34352;51.084;3.712;2022-09-09T14:01:39;3.38;;;1.92;;
48574;SDS011;34352;51.084;3.712;2022-09-09T14:04:05;2.75;;;1.58;;
48574;SDS011;34352;51.084;3.712;2022-09-09T14:06:31;3.95;;;1.55;;
48574;SDS011;34352;51.084;3.712;2022-09-09T14:09:00;8.82;;;2.47;;
48574;SDS011;34352;51.084;3.712;2022-09-09T14:11:25;4.90;;;2.08;;
48574;SDS011;34352;51.084;3.712;2022-09-09T14:13:51;3.05;;;1.95;;
48574;SDS011;34352;51.084;3.712;2022-09-09T14:16:17;6.82;;;2.28;;
48574;SDS011;34352;51.084;3.712;2022-09-09T14:18:43;3.00;;;1.70;;
48574;SDS011;34352;51.084;3.712;2022-09-09T14:21:10;5.72;;;1.65;;
48574;SDS011;34352;51.084;3.712;2022-09-09T14:23:37;5.35;;;2.15;;
48574;SDS011;34352;51.084;3.712;2022-09-09T14:26:03;4.30;;;2.20;;
48574;SDS011;34352;51.084;3.712;2022-09-09T14:28:32;2.72;;;1.60;;
48574;SDS011;34352;51.084;3.712;2022-09-09T14:30:59;4.85;;;1.80;;
48574;SDS011;34352;51.084;3.712;2022-09-09T14:33:26;2.97;;;1.42;;
48574;SDS011;34352;51.084;3.712;2022-09-09T14:36:02;2.97;;;1.90;;
48574;SDS011;34352;51.084;3.712;2022-09-09T14:38:29;6.10;;;2.30;;
48574;SDS011;34352;51.084;3.712;2022-09-09T14:40:55;2.78;;;1.77;;
48574;SDS011;34352;51.084;3.712;2022-09-09T14:43:23;2.35;;;1.30;;
48574;SDS011;34352;51.084;3.712;2022-09-09T14:45:49;2.58;;;1.50;;
48574;SDS011;34352;51.084;3.712;2022-09-09T14:48:16;9.98;;;2.78;;
48574;SDS011;34352;51.084;3.712;2022-09-09T14:50:42;8.13;;;2.83;;
48574;SDS011;34352;51.084;3.712;2022-09-09T14:53:07;4.80;;;2.55;;
48574;SDS011;34352;51.084;3.712;2022-09-09T14:55:35;6.25;;;2.60;;
48574;SDS011;34352;51.084;3.712;2022-09-09T14:58:01;7.18;;;3.10;;
48574;SDS011;34352;51.084;3.712;2022-09-09T15:00:27;6.68;;;2.90;;
48574;SDS011;34352;51.084;3.712;2022-09-09T15:02:53;6.30;;;2.90;;
48574;SDS011;34352;51.084;3.712;2022-09-09T15:05:19;6.97;;;3.10;;
48574;SDS011;34352;51.084;3.712;2022-09-09T15:07:45;8.43;;;3.85;;
48574;SDS011;34352;51.084;3.712;2022-09-09T15:10:12;8.90;;;4.75;;
48574;SDS011;34352;51.084;3.712;2022-09-09T15:12:38;7.32;;;3.70;;
48574;SDS011;34352;51.084;3.712;2022-09-09T15:15:05;6.97;;;3.65;;
48574;SDS011;34352;51.084;3.712;2022-09-09T15:17:31;10.35;;;3.63;;
48574;SDS011;34352;51.084;3.712;2022-09-09T15:19:57;7.57;;;3.53;;
48574;SDS011;34352;51.084;3.712;2022-09-09T15:22:23;7.63;;;3.80;;
48574;SDS011;34352;51.084;3.712;2022-09-09T15:24:50;5.25;;;3.55;;
48574;SDS011;34352;51.084;3.712;2022-09-09T15:27:16;5.82;;;3.50;;
48574;SDS011;34352;51.084;3.712;2022-09-09T15:29:43;8.35;;;4.07;;
48574;SDS011;34352;51.084;3.712;2022-09-09T15:32:09;6.65;;;4.00;;
48574;SDS011;34352;51.084;3.712;2022-09-09T15:34:35;6.63;;;3.97;;
48574;SDS011;34352;51.084;3.712;2022-09-09T15:37:00;9.55;;;4.07;;
48574;SDS011;34352;51.084;3.712;2022-09-09T15:39:26;11.93;;;4.43;;
48574;SDS011;34352;51.084;3.712;2022-09-09T15:41:51;5.47;;;4.20;;
48574;SDS011;34352;51.084;3.712;2022-09-09T15:44:17;7.43;;;4.85;;
48574;SDS011;34352;51.084;3.712;2022-09-09T15:46:50;9.10;;;4.65;;
48574;SDS011;34352;51.084;3.712;2022-09-09T15:49:27;11.00;;;5.40;;
48574;SDS011;34352;51.084;3.712;2022-09-09T15:51:57;6.75;;;4.57;;
48574;SDS011;34352;51.084;3.712;2022-09-09T15:54:28;10.10;;;4.60;;
48574;SDS011;34352;51.084;3.712;2022-09-09T15:56:58;7.97;;;4.40;;
48574;SDS011;34352;51.084;3.712;2022-09-09T15:59:26;6.32;;;3.63;;
48574;SDS011;34352;51.084;3.712;2022-09-09T16:01:53;6.38;;;3.10;;
48574;SDS011;34352;51.084;3.712;2022-09-09T16:04:20;7.38;;;3.40;;
48574;SDS011;34352;51.084;3.712;2022-09-09T16:06:54;6.47;;;3.58;;
48574;SDS011;34352;51.084;3.712;2022-09-09T16:09:22;5.95;;;3.70;;
48574;SDS011;34352;51.084;3.712;2022-09-09T16:11:48;8.15;;;3.88;;
48574;SDS011;34352;51.084;3.712;2022-09-09T16:14:14;5.00;;;3.28;;
48574;SDS011;34352;51.084;3.712;2022-09-09T16:16:41;6.47;;;3.55;;
48574;SDS011;34352;51.084;3.712;2022-09-09T16:19:07;4.50;;;3.38;;
48574;SDS011;34352;51.084;3.712;2022-09-09T16:21:48;4.55;;;2.80;;
48574;SDS011;34352;51.084;3.712;2022-09-09T16:24:15;10.40;;;3.35;;
48574;SDS011;34352;51.084;3.712;2022-09-09T16:26:49;6.32;;;3.15;;
48574;SDS011;34352;51.084;3.712;2022-09-09T16:29:18;4.10;;;2.80;;
48574;SDS011;34352;51.084;3.712;2022-09-09T16:31:46;6.10;;;2.72;;
48574;SDS011;34352;51.084;3.712;2022-09-09T16:34:13;5.63;;;3.40;;
48574;SDS011;34352;51.084;3.712;2022-09-09T16:36:42;5.45;;;3.30;;
48574;SDS011;34352;51.084;3.712;2022-09-09T16:39:13;6.13;;;2.97;;
48574;SDS011;34352;51.084;3.712;2022-09-09T16:41:50;8.32;;;3.08;;
48574;SDS011;34352;51.084;3.712;2022-09-09T16:44:18;5.78;;;3.17;;
48574;SDS011;34352;51.084;3.712;2022-09-09T16:49:17;8.70;;;3.42;;
48574;SDS011;34352;51.084;3.712;2022-09-09T16:54:14;10.43;;;4.13;;
48574;SDS011;34352;51.084;3.712;2022-09-09T16:56:44;10.15;;;3.92;;
48574;SDS011;34352;51.084;3.712;2022-09-09T16:59:12;6.38;;;3.58;;
48574;SDS011;34352;51.084;3.712;2022-09-09T17:01:43;7.45;;;4.03;;
48574;SDS011;34352;51.084;3.712;2022-09-09T17:04:14;8.18;;;3.53;;
48574;SDS011;34352;51.084;3.712;2022-09-09T17:06:49;8.23;;;3.72;;
48574;SDS011;34352;51.084;3.712;2022-09-09T17:09:17;7.97;;;4.65;;
48574;SDS011;34352;51.084;3.712;2022-09-09T17:11:44;6.63;;;3.78;;
48574;SDS011;34352;51.084;3.712;2022-09-09T17:14:13;8.52;;;4.43;;
48574;SDS011;34352;51.084;3.712;2022-09-09T17:16:41;8.35;;;4.57;;
48574;SDS011;34352;51.084;3.712;2022-09-09T17:19:07;9.70;;;5.13;;
48574;SDS011;34352;51.084;3.712;2022-09-09T17:21:34;6.82;;;3.58;;
48574;SDS011;34352;51.084;3.712;2022-09-09T17:24:02;5.88;;;3.97;;
48574;SDS011;34352;51.084;3.712;2022-09-09T17:26:29;7.82;;;3.70;;
48574;SDS011;34352;51.084;3.712;2022-09-09T17:28:57;5.97;;;3.58;;
48574;SDS011;34352;51.084;3.712;2022-09-09T17:31:27;8.40;;;4.65;;
48574;SDS011;34352;51.084;3.712;2022-09-09T17:33:53;11.23;;;3.92;;
48574;SDS011;34352;51.084;3.712;2022-09-09T17:36:24;8.25;;;4.38;;
48574;SDS011;34352;51.084;3.712;2022-09-09T17:38:58;8.10;;;3.42;;
48574;SDS011;34352;51.084;3.712;2022-09-09T17:41:26;11.65;;;3.47;;
48574;SDS011;34352;51.084;3.712;2022-09-09T17:43:54;10.68;;;4.43;;
48574;SDS011;34352;51.084;3.712;2022-09-09T17:46:23;12.90;;;3.53;;
48574;SDS011;34352;51.084;3.712;2022-09-09T17:48:50;18.63;;;4.28;;
48574;SDS011;34352;51.084;3.712;2022-09-09T17:51:20;10.02;;;3.03;;
48574;SDS011;34352;51.084;3.712;2022-09-09T17:53:52;9.82;;;2.88;;
48574;SDS011;34352;51.084;3.712;2022-09-09T17:56:23;9.40;;;2.90;;
48574;SDS011;34352;51.084;3.712;2022-09-09T17:58:50;12.65;;;3.35;;